sensor_id;sensor_type;location;lat;lon;timestamp;pressure;altitude;pressure_sealevel;temperature;humidity
30714;BME280;17465;47.934;33.430;2023-01-31T00:02:27;57479.76;;;-140.43;76.26
30714;BME280;17465;47.934;33.430;2023-01-31T00:05:00;57485.05;;;-140.43;76.06
30714;BME280;17465;47.934;33.430;2023-01-31T00:07:31;57474.46;;;-140.43;76.55
30714;BME280;17465;47.934;33.430;2023-01-31T00:10:02;57474.46;;;-140.43;76.55
30714;BME280;17465;47.934;33.430;2023-01-31T00:12:33;57498.82;;;-140.43;77.18
30714;BME280;17465;47.934;33.430;2023-01-31T00:15:06;57498.82;;;-140.43;77.18
30714;BME280;17465;47.934;33.430;2023-01-31T00:17:38;57503.06;;;-140.43;76.80
30714;BME280;17465;47.934;33.430;2023-01-31T00:20:12;57503.06;;;-140.43;76.80
30714;BME280;17465;47.934;33.430;2023-01-31T00:22:46;57492.47;;;-140.43;76.50
30714;BME280;17465;47.934;33.430;2023-01-31T00:25:16;57492.47;;;-140.43;76.86
30714;BME280;17465;47.934;33.430;2023-01-31T00:27:47;57456.46;;;-140.43;77.31
30714;BME280;17465;47.934;33.430;2023-01-31T00:30:18;57456.46;;;-140.43;77.31
30714;BME280;17465;47.934;33.430;2023-01-31T00:32:49;57478.70;;;-140.43;77.57
30714;BME280;17465;47.934;33.430;2023-01-31T00:35:20;57467.05;;;-140.43;76.79
30714;BME280;17465;47.934;33.430;2023-01-31T00:37:51;57492.47;;;-140.43;76.94
30714;BME280;17465;47.934;33.430;2023-01-31T00:40:22;57509.41;;;-140.43;77.52
30714;BME280;17465;47.934;33.430;2023-01-31T00:42:52;57470.23;;;-140.43;77.34
30714;BME280;17465;47.934;33.430;2023-01-31T00:45:23;57476.58;;;-140.43;77.80
30714;BME280;17465;47.934;33.430;2023-01-31T00:47:53;57476.58;;;-140.43;77.80
30714;BME280;17465;47.934;33.430;2023-01-31T00:50:31;57486.12;;;-140.43;77.63
30714;BME280;17465;47.934;33.430;2023-01-31T00:52:57;57490.35;;;-140.43;77.35
30714;BME280;17465;47.934;33.430;2023-01-31T00:55:28;57490.35;;;-140.43;78.03
30714;BME280;17465;47.934;33.430;2023-01-31T00:58:03;57460.70;;;-140.43;77.91
30714;BME280;17465;47.934;33.430;2023-01-31T01:00:30;57495.65;;;-140.43;78.48
30714;BME280;17465;47.934;33.430;2023-01-31T01:03:00;57495.65;;;-140.43;78.48
30714;BME280;17465;47.934;33.430;2023-01-31T01:05:31;57490.35;;;-140.43;79.43
30714;BME280;17465;47.934;33.430;2023-01-31T01:08:03;57511.54;;;-140.43;80.12
30714;BME280;17465;47.934;33.430;2023-01-31T01:10:34;57506.24;;;-140.43;80.40
30714;BME280;17465;47.934;33.430;2023-01-31T04:32:21;57478.70;;;-140.43;87.44
30714;BME280;17465;47.934;33.430;2023-01-31T04:34:54;57478.70;;;-140.43;87.44
30714;BME280;17465;47.934;33.430;2023-01-31T04:37:24;57475.52;;;-140.43;87.51
30714;BME280;17465;47.934;33.430;2023-01-31T04:39:55;57490.35;;;-140.43;86.95
30714;BME280;17465;47.934;33.430;2023-01-31T04:42:27;57490.35;;;-140.43;86.95
30714;BME280;17465;47.934;33.430;2023-01-31T04:44:57;57515.77;;;-140.43;87.19
30714;BME280;17465;47.934;33.430;2023-01-31T04:47:28;57470.23;;;-140.43;86.94
30714;BME280;17465;47.934;33.430;2023-01-31T04:50:00;57467.05;;;-140.43;87.17
30714;BME280;17465;47.934;33.430;2023-01-31T04:52:31;57486.12;;;-140.43;86.83
30714;BME280;17465;47.934;33.430;2023-01-31T04:55:01;57470.23;;;-140.43;86.99
30714;BME280;17465;47.934;33.430;2023-01-31T04:57:32;57470.23;;;-140.43;86.99
30714;BME280;17465;47.934;33.430;2023-01-31T05:00:03;57468.11;;;-140.43;87.02
30714;BME280;17465;47.934;33.430;2023-01-31T05:02:35;57468.11;;;-140.43;87.02
30714;BME280;17465;47.934;33.430;2023-01-31T05:05:06;57496.71;;;-140.43;87.36
30714;BME280;17465;47.934;33.430;2023-01-31T05:07:38;57486.12;;;-140.43;87.27
30714;BME280;17465;47.934;33.430;2023-01-31T05:10:09;57486.12;;;-140.43;87.27
30714;BME280;17465;47.934;33.430;2023-01-31T05:12:40;57493.53;;;-140.43;87.28
30714;BME280;17465;47.934;33.430;2023-01-31T05:15:11;57465.99;;;-140.43;87.10
30714;BME280;17465;47.934;33.430;2023-01-31T05:17:42;57468.11;;;-140.43;87.05
30714;BME280;17465;47.934;33.430;2023-01-31T05:20:15;57468.11;;;-140.43;87.05
30714;BME280;17465;47.934;33.430;2023-01-31T05:22:48;57462.82;;;-140.43;87.04
30714;BME280;17465;47.934;33.430;2023-01-31T05:25:19;57503.06;;;-140.43;86.82
30714;BME280;17465;47.934;33.430;2023-01-31T05:27:51;57503.06;;;-140.43;86.82
30714;BME280;17465;47.934;33.430;2023-01-31T05:30:22;57487.18;;;-140.43;87.04
30714;BME280;17465;47.934;33.430;2023-01-31T05:32:53;57470.23;;;-140.43;86.29
30714;BME280;17465;47.934;33.430;2023-01-31T05:35:24;57468.11;;;-140.43;86.31
30714;BME280;17465;47.934;33.430;2023-01-31T05:37:55;57479.76;;;-140.43;87.29
30714;BME280;17465;47.934;33.430;2023-01-31T05:40:48;57485.05;;;-140.43;87.32
30714;BME280;17465;47.934;33.430;2023-01-31T05:43:28;57462.82;;;-140.43;87.09
30714;BME280;17465;47.934;33.430;2023-01-31T05:46:01;57464.93;;;-140.43;87.72
30714;BME280;17465;47.934;33.430;2023-01-31T05:48:32;57464.93;;;-140.43;87.74
30714;BME280;17465;47.934;33.430;2023-01-31T05:53:56;57480.82;;;-140.43;88.38
30714;BME280;17465;47.934;33.430;2023-01-31T05:56:29;57493.53;;;-140.43;88.40
30714;BME280;17465;47.934;33.430;2023-01-31T05:59:00;57453.28;;;-140.43;89.04
30714;BME280;17465;47.934;33.430;2023-01-31T06:01:31;57484.00;;;-140.43;88.41
30714;BME280;17465;47.934;33.430;2023-01-31T06:04:02;57463.87;;;-140.43;88.27
30714;BME280;17465;47.934;33.430;2023-01-31T06:09:30;57463.87;;;-140.43;89.25
30714;BME280;17465;47.934;33.430;2023-01-31T06:12:01;57477.64;;;-140.43;89.49
30714;BME280;17465;47.934;33.430;2023-01-31T06:14:35;57477.64;;;-140.43;89.49
30714;BME280;17465;47.934;33.430;2023-01-31T06:17:06;57467.05;;;-140.43;89.01
30714;BME280;17465;47.934;33.430;2023-01-31T06:19:38;57471.29;;;-140.43;89.64
30714;BME280;17465;47.934;33.430;2023-01-31T06:22:08;57460.70;;;-140.43;89.61
30714;BME280;17465;47.934;33.430;2023-01-31T06:24:54;56754.35;;;-140.43;89.71
30714;BME280;17465;47.934;33.430;2023-01-31T06:30:22;57444.81;;;-140.43;89.42
30714;BME280;17465;47.934;33.430;2023-01-31T06:32:59;57488.23;;;-140.43;89.80
30714;BME280;17465;47.934;33.430;2023-01-31T06:35:33;57495.65;;;-140.43;90.34
30714;BME280;17465;47.934;33.430;2023-01-31T06:38:03;57487.18;;;-140.43;90.45
30714;BME280;17465;47.934;33.430;2023-01-31T06:40:35;57487.18;;;-140.43;90.45
30714;BME280;17465;47.934;33.430;2023-01-31T06:43:05;57447.99;;;-140.43;90.84
30714;BME280;17465;47.934;33.430;2023-01-31T06:45:37;57488.23;;;-140.43;90.94
30714;BME280;17465;47.934;33.430;2023-01-31T06:48:07;57490.35;;;-140.43;90.99
30714;BME280;17465;47.934;33.430;2023-01-31T06:50:38;57464.93;;;-140.43;90.78
30714;BME280;17465;47.934;33.430;2023-01-31T06:53:20;57479.76;;;-140.43;90.55
30714;BME280;17465;47.934;33.430;2023-01-31T06:55:50;57437.39;;;-140.43;89.70
30714;BME280;17465;47.934;33.430;2023-01-31T06:58:21;57482.94;;;-140.43;89.97
30714;BME280;17465;47.934;33.430;2023-01-31T07:00:53;57495.65;;;-140.43;89.23
30714;BME280;17465;47.934;33.430;2023-01-31T07:03:25;57495.65;;;-140.43;89.23
30714;BME280;17465;47.934;33.430;2023-01-31T07:05:55;57447.99;;;-140.43;88.87
30714;BME280;17465;47.934;33.430;2023-01-31T07:08:27;57476.58;;;-140.43;88.67
30714;BME280;17465;47.934;33.430;2023-01-31T07:11:03;57463.87;;;-140.43;88.25
30714;BME280;17465;47.934;33.430;2023-01-31T07:14:01;57467.05;;;-140.43;88.33
30714;BME280;17465;47.934;33.430;2023-01-31T07:16:33;57451.16;;;-140.43;87.95
30714;BME280;17465;47.934;33.430;2023-01-31T07:19:04;57469.17;;;-140.43;87.19
30714;BME280;17465;47.934;33.430;2023-01-31T07:21:37;57469.17;;;-140.43;87.19
30714;BME280;17465;47.934;33.430;2023-01-31T07:24:10;57459.64;;;-140.43;86.88
30714;BME280;17465;47.934;33.430;2023-01-31T07:26:44;57451.16;;;-140.43;87.03
30714;BME280;17465;47.934;33.430;2023-01-31T07:29:15;57461.76;;;-140.43;86.80
30714;BME280;17465;47.934;33.430;2023-01-31T07:31:52;57459.64;;;-140.43;86.93
30714;BME280;17465;47.934;33.430;2023-01-31T07:34:19;57429.98;;;-140.43;87.36
30714;BME280;17465;47.934;33.430;2023-01-31T07:36:56;57473.41;;;-140.43;87.47
30714;BME280;17465;47.934;33.430;2023-01-31T07:39:30;57467.05;;;-140.43;87.12
30714;BME280;17465;47.934;33.430;2023-01-31T07:42:02;57455.40;;;-140.43;87.02
30714;BME280;17465;47.934;33.430;2023-01-31T07:44:34;57462.82;;;-140.43;87.34
30714;BME280;17465;47.934;33.430;2023-01-31T07:47:04;57463.87;;;-140.43;87.65
30714;BME280;17465;47.934;33.430;2023-01-31T07:49:37;57473.41;;;-140.43;86.94
30714;BME280;17465;47.934;33.430;2023-01-31T07:52:11;57456.46;;;-140.43;87.07
30714;BME280;17465;47.934;33.430;2023-01-31T07:54:43;57445.87;;;-140.43;86.95
30714;BME280;17465;47.934;33.430;2023-01-31T07:57:16;57461.76;;;-140.43;86.61
30714;BME280;17465;47.934;33.430;2023-01-31T07:59:47;57467.05;;;-140.43;86.69
30714;BME280;17465;47.934;33.430;2023-01-31T08:02:18;57467.05;;;-140.43;86.69
30714;BME280;17465;47.934;33.430;2023-01-31T08:04:49;57442.69;;;-140.43;86.35
30714;BME280;17465;47.934;33.430;2023-01-31T08:07:26;57442.69;;;-140.43;86.35
30714;BME280;17465;47.934;33.430;2023-01-31T08:09:58;57447.99;;;-140.43;86.37
30714;BME280;17465;47.934;33.430;2023-01-31T08:12:31;57490.35;;;-140.43;86.89
30714;BME280;17465;47.934;33.430;2023-01-31T08:15:05;57424.69;;;-140.43;86.83
30714;BME280;17465;47.934;33.430;2023-01-31T08:17:38;57439.52;;;-140.43;86.38
30714;BME280;17465;47.934;33.430;2023-01-31T08:20:12;57439.52;;;-140.43;86.38
30714;BME280;17465;47.934;33.430;2023-01-31T08:22:41;57458.58;;;-140.43;86.90
30714;BME280;17465;47.934;33.430;2023-01-31T08:25:15;57462.82;;;-140.43;87.05
30714;BME280;17465;47.934;33.430;2023-01-31T08:33:36;57446.93;;;-140.43;87.60
30714;BME280;17465;47.934;33.430;2023-01-31T08:36:10;57438.46;;;-140.43;88.22
30714;BME280;17465;47.934;33.430;2023-01-31T08:38:41;57438.46;;;-140.43;88.22
30714;BME280;17465;47.934;33.430;2023-01-31T08:41:12;57441.63;;;-140.43;86.71
30714;BME280;17465;47.934;33.430;2023-01-31T08:43:46;57462.82;;;-140.43;86.65
30714;BME280;17465;47.934;33.430;2023-01-31T08:46:19;57458.58;;;-140.43;87.43
30714;BME280;17465;47.934;33.430;2023-01-31T08:49:05;57447.99;;;-140.43;87.42
30714;BME280;17465;47.934;33.430;2023-01-31T08:51:24;57470.23;;;-140.43;87.46
30714;BME280;17465;47.934;33.430;2023-01-31T08:53:58;57470.23;;;-140.43;87.46
30714;BME280;17465;47.934;33.430;2023-01-31T08:56:29;57456.46;;;-140.43;87.15
30714;BME280;17465;47.934;33.430;2023-01-31T08:59:03;57450.11;;;-140.43;87.05
30714;BME280;17465;47.934;33.430;2023-01-31T09:01:37;57461.76;;;-140.43;87.74
30714;BME280;17465;47.934;33.430;2023-01-31T09:04:07;57460.70;;;-140.43;88.31
30714;BME280;17465;47.934;33.430;2023-01-31T09:06:55;57460.70;;;-140.43;88.34
30714;BME280;17465;47.934;33.430;2023-01-31T09:09:23;57428.92;;;-140.43;88.43
30714;BME280;17465;47.934;33.430;2023-01-31T09:11:59;57451.16;;;-140.43;88.45
30714;BME280;17465;47.934;33.430;2023-01-31T09:14:28;57458.58;;;-140.43;88.28
30714;BME280;17465;47.934;33.430;2023-01-31T09:17:03;57446.93;;;-140.43;88.49
30714;BME280;17465;47.934;33.430;2023-01-31T09:19:39;57460.70;;;-140.43;88.61
30714;BME280;17465;47.934;33.430;2023-01-31T09:22:17;57460.70;;;-140.43;88.61
30714;BME280;17465;47.934;33.430;2023-01-31T09:24:56;57455.40;;;-140.43;89.17
30714;BME280;17465;47.934;33.430;2023-01-31T09:27:44;57455.40;;;-140.43;89.17
30714;BME280;17465;47.934;33.430;2023-01-31T09:30:29;57443.75;;;-140.43;89.28
30714;BME280;17465;47.934;33.430;2023-01-31T09:33:05;57443.75;;;-140.43;89.28
30714;BME280;17465;47.934;33.430;2023-01-31T09:35:37;57441.63;;;-140.43;90.95
30714;BME280;17465;47.934;33.430;2023-01-31T09:38:13;57416.21;;;-140.43;90.49
30714;BME280;17465;47.934;33.430;2023-01-31T09:40:45;57416.21;;;-140.43;90.49
30714;BME280;17465;47.934;33.430;2023-01-31T09:43:18;57436.34;;;-140.43;92.73
30714;BME280;17465;47.934;33.430;2023-01-31T09:45:55;57436.34;;;-140.43;92.73
30714;BME280;17465;47.934;33.430;2023-01-31T09:48:41;57468.11;;;-140.43;92.73
30714;BME280;17465;47.934;33.430;2023-01-31T10:08:08;57454.34;;;-140.43;96.83
30714;BME280;17465;47.934;33.430;2023-01-31T10:10:57;57454.34;;;-140.43;96.83
30714;BME280;17465;47.934;33.430;2023-01-31T10:16:40;57459.64;;;-140.43;96.35
30714;BME280;17465;47.934;33.430;2023-01-31T10:19:19;57435.28;;;-140.43;96.67
30714;BME280;17465;47.934;33.430;2023-01-31T10:22:06;57451.16;;;-140.43;97.68
30714;BME280;17465;47.934;33.430;2023-01-31T10:24:39;57444.81;;;-140.43;97.13
30714;BME280;17465;47.934;33.430;2023-01-31T15:43:23;57473.41;;;-140.43;100.00
30714;BME280;17465;47.934;33.430;2023-01-31T15:45:54;57463.87;;;-140.43;100.00
30714;BME280;17465;47.934;33.430;2023-01-31T15:48:26;57481.88;;;-140.43;100.00
30714;BME280;17465;47.934;33.430;2023-01-31T15:50:58;57449.05;;;-140.43;100.00
30714;BME280;17465;47.934;33.430;2023-01-31T15:53:36;57449.05;;;-140.43;100.00
30714;BME280;17465;47.934;33.430;2023-01-31T15:56:17;57445.87;;;-140.43;100.00
30714;BME280;17465;47.934;33.430;2023-01-31T15:58:56;57454.34;;;-140.43;100.00
30714;BME280;17465;47.934;33.430;2023-01-31T16:01:28;57433.16;;;-140.43;100.00
30714;BME280;17465;47.934;33.430;2023-01-31T16:07:22;57446.93;;;-140.43;100.00
30714;BME280;17465;47.934;33.430;2023-01-31T16:09:49;57421.51;;;-140.43;100.00
30714;BME280;17465;47.934;33.430;2023-01-31T16:12:21;57447.99;;;-140.43;100.00
30714;BME280;17465;47.934;33.430;2023-01-31T16:18:15;57425.75;;;-140.43;100.00
30714;BME280;17465;47.934;33.430;2023-01-31T16:20:54;57442.69;;;-140.43;100.00
30714;BME280;17465;47.934;33.430;2023-01-31T16:23:43;57421.51;;;-140.43;100.00
30714;BME280;17465;47.934;33.430;2023-01-31T16:29:59;57444.81;;;-140.43;100.00
30714;BME280;17465;47.934;33.430;2023-01-31T16:32:38;57436.34;;;-140.43;100.00
30714;BME280;17465;47.934;33.430;2023-01-31T16:35:29;57441.63;;;-140.43;100.00
30714;BME280;17465;47.934;33.430;2023-01-31T16:42:04;57440.57;;;-140.43;100.00
30714;BME280;17465;47.934;33.430;2023-01-31T16:44:45;57418.33;;;-140.43;100.00
30714;BME280;17465;47.934;33.430;2023-01-31T16:53:26;57434.22;;;-140.43;100.00
30714;BME280;17465;47.934;33.430;2023-01-31T16:56:18;57434.22;;;-140.43;100.00
30714;BME280;17465;47.934;33.430;2023-01-31T16:58:55;57399.27;;;-140.43;100.00
30714;BME280;17465;47.934;33.430;2023-01-31T17:01:37;57423.63;;;-140.43;100.00
30714;BME280;17465;47.934;33.430;2023-01-31T17:04:17;57423.63;;;-140.43;100.00
30714;BME280;17465;47.934;33.430;2023-01-31T17:07:05;57440.57;;;-140.43;100.00
30714;BME280;17465;47.934;33.430;2023-01-31T17:09:31;57431.04;;;-140.43;100.00
30714;BME280;17465;47.934;33.430;2023-01-31T17:12:05;57450.11;;;-140.43;100.00
30714;BME280;17465;47.934;33.430;2023-01-31T17:14:36;57432.10;;;-140.43;100.00
30714;BME280;17465;47.934;33.430;2023-01-31T17:17:09;57442.69;;;-140.43;100.00
30714;BME280;17465;47.934;33.430;2023-01-31T17:19:45;57436.34;;;-140.43;100.00
30714;BME280;17465;47.934;33.430;2023-01-31T17:23:02;57445.87;;;-140.43;100.00
30714;BME280;17465;47.934;33.430;2023-01-31T17:28:47;57452.23;;;-140.43;100.00
30714;BME280;17465;47.934;33.430;2023-01-31T17:31:42;57453.28;;;-140.43;100.00
30714;BME280;17465;47.934;33.430;2023-01-31T17:37:47;57463.87;;;-140.43;100.00
30714;BME280;17465;47.934;33.430;2023-01-31T18:00:14;57457.52;;;-140.43;100.00
30714;BME280;17465;47.934;33.430;2023-01-31T18:06:24;57432.10;;;-140.43;100.00
30714;BME280;17465;47.934;33.430;2023-01-31T18:20:52;57441.63;;;-140.43;100.00
30714;BME280;17465;47.934;33.430;2023-01-31T18:37:51;57431.04;;;-140.43;100.00
30714;BME280;17465;47.934;33.430;2023-01-31T18:40:49;57431.04;;;-140.43;100.00
30714;BME280;17465;47.934;33.430;2023-01-31T18:46:41;57419.39;;;-140.43;100.00
30714;BME280;17465;47.934;33.430;2023-01-31T18:49:34;57419.39;;;-140.43;100.00
30714;BME280;17465;47.934;33.430;2023-01-31T18:55:42;57442.69;;;-140.43;100.00
30714;BME280;17465;47.934;33.430;2023-01-31T18:58:55;57436.34;;;-140.43;100.00
30714;BME280;17465;47.934;33.430;2023-01-31T19:01:35;57436.34;;;-140.43;100.00
30714;BME280;17465;47.934;33.430;2023-01-31T19:04:30;57420.45;;;-140.43;100.00
30714;BME280;17465;47.934;33.430;2023-01-31T19:07:05;57424.69;;;-140.43;100.00
30714;BME280;17465;47.934;33.430;2023-01-31T19:09:36;57446.93;;;-140.43;100.00
30714;BME280;17465;47.934;33.430;2023-01-31T19:12:25;57433.16;;;-140.43;100.00
30714;BME280;17465;47.934;33.430;2023-01-31T19:15:11;57456.46;;;-140.43;100.00
30714;BME280;17465;47.934;33.430;2023-01-31T21:13:35;57470.23;;;-140.43;100.00
30714;BME280;17465;47.934;33.430;2023-01-31T21:16:07;57485.05;;;-140.43;100.00
30714;BME280;17465;47.934;33.430;2023-01-31T21:18:40;57485.05;;;-140.43;100.00
30714;BME280;17465;47.934;33.430;2023-01-31T21:21:13;57464.93;;;-140.43;100.00
30714;BME280;17465;47.934;33.430;2023-01-31T21:23:44;57459.64;;;-140.43;100.00
30714;BME280;17465;47.934;33.430;2023-01-31T21:26:20;57470.23;;;-140.43;100.00
30714;BME280;17465;47.934;33.430;2023-01-31T21:28:53;57470.23;;;-140.43;100.00
30714;BME280;17465;47.934;33.430;2023-01-31T21:31:27;57462.82;;;-140.43;100.00
30714;BME280;17465;47.934;33.430;2023-01-31T21:41:00;57446.93;;;-140.43;100.00
30714;BME280;17465;47.934;33.430;2023-01-31T21:53:40;57473.41;;;-140.43;100.00
30714;BME280;17465;47.934;33.430;2023-01-31T21:56:13;57431.04;;;-140.43;100.00
30714;BME280;17465;47.934;33.430;2023-01-31T21:58:47;57431.04;;;-140.43;100.00
30714;BME280;17465;47.934;33.430;2023-01-31T22:01:27;57443.75;;;-140.43;100.00
30714;BME280;17465;47.934;33.430;2023-01-31T22:03:58;57445.87;;;-140.43;100.00
30714;BME280;17465;47.934;33.430;2023-01-31T22:06:40;57444.81;;;-140.43;100.00
30714;BME280;17465;47.934;33.430;2023-01-31T22:09:12;57454.34;;;-140.43;100.00
30714;BME280;17465;47.934;33.430;2023-01-31T22:11:44;57464.93;;;-140.43;100.00
30714;BME280;17465;47.934;33.430;2023-01-31T22:17:19;57446.93;;;-140.43;100.00
30714;BME280;17465;47.934;33.430;2023-01-31T22:19:55;57437.39;;;-140.43;100.00
30714;BME280;17465;47.934;33.430;2023-01-31T22:23:13;57437.39;;;-140.43;100.00
30714;BME280;17465;47.934;33.430;2023-01-31T22:38:52;57458.58;;;-140.43;100.00
30714;BME280;17465;47.934;33.430;2023-01-31T22:44:50;57451.16;;;-140.43;100.00
30714;BME280;17465;47.934;33.430;2023-01-31T22:47:21;57445.87;;;-140.43;100.00
30714;BME280;17465;47.934;33.430;2023-01-31T22:49:51;57445.87;;;-140.43;100.00
30714;BME280;17465;47.934;33.430;2023-01-31T22:52:22;57455.40;;;-140.43;100.00
30714;BME280;17465;47.934;33.430;2023-01-31T22:54:52;57443.75;;;-140.43;100.00
30714;BME280;17465;47.934;33.430;2023-01-31T22:57:23;57437.39;;;-140.43;100.00
30714;BME280;17465;47.934;33.430;2023-01-31T23:00:13;57428.92;;;-140.43;100.00
30714;BME280;17465;47.934;33.430;2023-01-31T23:02:47;57428.92;;;-140.43;100.00
30714;BME280;17465;47.934;33.430;2023-01-31T23:05:17;57435.28;;;-140.43;100.00
30714;BME280;17465;47.934;33.430;2023-01-31T23:07:50;57435.28;;;-140.43;100.00
30714;BME280;17465;47.934;33.430;2023-01-31T23:10:24;57456.46;;;-140.43;100.00
30714;BME280;17465;47.934;33.430;2023-01-31T23:13:01;57438.46;;;-140.43;100.00
30714;BME280;17465;47.934;33.430;2023-01-31T23:15:33;57471.29;;;-140.43;100.00
30714;BME280;17465;47.934;33.430;2023-01-31T23:18:05;57471.29;;;-140.43;100.00
30714;BME280;17465;47.934;33.430;2023-01-31T23:20:36;57454.34;;;-140.43;100.00
30714;BME280;17465;47.934;33.430;2023-01-31T23:23:07;57460.70;;;-140.43;100.00
30714;BME280;17465;47.934;33.430;2023-01-31T23:25:38;57469.17;;;-140.43;100.00
30714;BME280;17465;47.934;33.430;2023-01-31T23:28:08;57433.16;;;-140.43;100.00
30714;BME280;17465;47.934;33.430;2023-01-31T23:30:39;57433.16;;;-140.43;100.00
30714;BME280;17465;47.934;33.430;2023-01-31T23:33:09;57436.34;;;-140.43;100.00
30714;BME280;17465;47.934;33.430;2023-01-31T23:35:40;57440.57;;;-140.43;100.00
30714;BME280;17465;47.934;33.430;2023-01-31T23:38:16;57456.46;;;-140.43;100.00
30714;BME280;17465;47.934;33.430;2023-01-31T23:40:57;57461.76;;;-140.43;100.00
30714;BME280;17465;47.934;33.430;2023-01-31T23:43:26;57461.76;;;-140.43;100.00
30714;BME280;17465;47.934;33.430;2023-01-31T23:45:56;57410.92;;;-140.43;100.00
30714;BME280;17465;47.934;33.430;2023-01-31T23:48:27;57429.98;;;-140.43;100.00
30714;BME280;17465;47.934;33.430;2023-01-31T23:51:02;57460.70;;;-140.43;100.00
30714;BME280;17465;47.934;33.430;2023-01-31T23:53:33;57441.63;;;-140.43;100.00
30714;BME280;17465;47.934;33.430;2023-01-31T23:56:04;57464.93;;;-140.43;100.00
30714;BME280;17465;47.934;33.430;2023-01-31T23:58:34;57450.11;;;-140.43;100.00
